Terminal Aerodrome Forecast
Issued by NWS

Home | Current Version | Previous Version | Graphics & Text | Print | Product List | Glossary On
Versions: 1 2 3 4 5 6 7 8 9 10 11 12 13 14 15 16 17 18 19 20 21
000
FTUS43 KGRB 202300
TAFCWA
TAF
KCWA 202339Z 2100/2124 26008KT P6SM SCT040 BKN120
     FM210200 29004KT 6SM -SHRA BR SCT035 OVC070
      TEMPO 2103/2105 3SM TSRA BR OVC025CB
     FM210600 32007KT 6SM -SHRA BR SCT015 OVC025
      TEMPO 2109/2113 4SM SHRA BKN008 OVC015
     FM211400 35009KT P6SM BKN015
     FM211700 34009KT P6SM BKN025
     FM211900 34008KT P6SM SCT035
      AMD LTD TO CLD VIS AND WIND 2103/2111=

USA.gov is the U.S. government's official web portal to all federal, state and local government web resources and services.